sensor_id;sensor_type;location;lat;lon;timestamp;pressure;altitude;pressure_sealevel;temperature;humidity
14117;BME280;7137;51.436;6.544;2022-08-19T00:00:48;100890.91;;;20.77;81.12
14117;BME280;7137;51.436;6.544;2022-08-19T00:03:50;100893.78;;;20.73;81.21
14117;BME280;7137;51.436;6.544;2022-08-19T00:06:52;100901.84;;;20.72;81.23
14117;BME280;7137;51.436;6.544;2022-08-19T00:09:54;100903.84;;;20.68;82.64
14117;BME280;7137;51.436;6.544;2022-08-19T00:12:56;100900.69;;;20.63;82.55
14117;BME280;7137;51.436;6.544;2022-08-19T00:16:00;100893.06;;;20.59;81.88
14117;BME280;7137;51.436;6.544;2022-08-19T00:19:03;100904.09;;;20.53;81.90
14117;BME280;7137;51.436;6.544;2022-08-19T00:22:05;100907.81;;;20.50;83.02
14117;BME280;7137;51.436;6.544;2022-08-19T00:25:07;100901.75;;;20.48;83.62
14117;BME280;7137;51.436;6.544;2022-08-19T00:28:09;100905.59;;;20.44;83.26
14117;BME280;7137;51.436;6.544;2022-08-19T00:31:12;100897.81;;;20.41;83.70
14117;BME280;7137;51.436;6.544;2022-08-19T00:34:14;100895.69;;;20.33;82.70
14117;BME280;7137;51.436;6.544;2022-08-19T00:37:16;100898.66;;;20.29;82.25
14117;BME280;7137;51.436;6.544;2022-08-19T00:40:18;100887.63;;;20.22;84.53
14117;BME280;7137;51.436;6.544;2022-08-19T00:43:22;100881.78;;;20.17;83.56
14117;BME280;7137;51.436;6.544;2022-08-19T00:46:25;100889.13;;;20.13;83.21
14117;BME280;7137;51.436;6.544;2022-08-19T00:49:29;100888.44;;;20.10;84.44
14117;BME280;7137;51.436;6.544;2022-08-19T00:52:36;100891.44;;;20.05;83.81
14117;BME280;7137;51.436;6.544;2022-08-19T00:55:39;100888.25;;;20.00;84.62
14117;BME280;7137;51.436;6.544;2022-08-19T00:58:41;100885.88;;;19.96;85.60
14117;BME280;7137;51.436;6.544;2022-08-19T01:01:44;100884.63;;;19.89;85.39
14117;BME280;7137;51.436;6.544;2022-08-19T01:04:46;100883.22;;;19.83;84.85
14117;BME280;7137;51.436;6.544;2022-08-19T01:07:49;100879.59;;;19.84;85.11
14117;BME280;7137;51.436;6.544;2022-08-19T01:10:54;100877.38;;;19.78;86.06
14117;BME280;7137;51.436;6.544;2022-08-19T01:13:56;100873.13;;;19.75;85.70
14117;BME280;7137;51.436;6.544;2022-08-19T01:17:00;100875.59;;;19.78;84.80
14117;BME280;7137;51.436;6.544;2022-08-19T01:20:03;100882.78;;;19.76;85.28
14117;BME280;7137;51.436;6.544;2022-08-19T01:23:06;100890.97;;;19.73;85.44
14117;BME280;7137;51.436;6.544;2022-08-19T01:26:10;100892.94;;;19.70;85.41
14117;BME280;7137;51.436;6.544;2022-08-19T01:29:14;100896.38;;;19.72;85.43
14117;BME280;7137;51.436;6.544;2022-08-19T01:32:16;100891.81;;;19.74;86.35
14117;BME280;7137;51.436;6.544;2022-08-19T01:35:21;100894.66;;;19.71;87.43
14117;BME280;7137;51.436;6.544;2022-08-19T01:38:26;100896.53;;;19.69;86.85
14117;BME280;7137;51.436;6.544;2022-08-19T01:41:31;100889.75;;;19.65;87.08
14117;BME280;7137;51.436;6.544;2022-08-19T01:44:34;100879.38;;;19.62;86.73
14117;BME280;7137;51.436;6.544;2022-08-19T01:47:38;100886.78;;;19.56;85.81
14117;BME280;7137;51.436;6.544;2022-08-19T01:50:40;100890.00;;;19.47;86.66
14117;BME280;7137;51.436;6.544;2022-08-19T01:53:46;100898.91;;;19.46;87.91
14117;BME280;7137;51.436;6.544;2022-08-19T01:56:48;100894.72;;;19.42;88.50
14117;BME280;7137;51.436;6.544;2022-08-19T01:59:50;100893.13;;;19.40;87.12
14117;BME280;7137;51.436;6.544;2022-08-19T02:02:52;100889.63;;;19.39;88.67
14117;BME280;7137;51.436;6.544;2022-08-19T02:05:55;100895.88;;;19.38;87.10
14117;BME280;7137;51.436;6.544;2022-08-19T02:08:59;100902.03;;;19.39;86.42
14117;BME280;7137;51.436;6.544;2022-08-19T02:12:00;100903.09;;;19.36;87.24
14117;BME280;7137;51.436;6.544;2022-08-19T02:15:04;100894.41;;;19.34;86.94
14117;BME280;7137;51.436;6.544;2022-08-19T02:18:07;100882.09;;;19.33;87.43
14117;BME280;7137;51.436;6.544;2022-08-19T02:21:09;100890.06;;;19.33;88.05
14117;BME280;7137;51.436;6.544;2022-08-19T02:24:12;100887.28;;;19.35;89.03
14117;BME280;7137;51.436;6.544;2022-08-19T02:31:10;100895.56;;;19.30;88.27
14117;BME280;7137;51.436;6.544;2022-08-19T02:34:13;100897.16;;;19.33;89.34
14117;BME280;7137;51.436;6.544;2022-08-19T02:37:14;100899.16;;;19.29;89.44
14117;BME280;7137;51.436;6.544;2022-08-19T02:40:32;100893.94;;;19.27;88.46
14117;BME280;7137;51.436;6.544;2022-08-19T02:43:34;100893.06;;;19.27;88.70
14117;BME280;7137;51.436;6.544;2022-08-19T02:46:36;100895.84;;;19.25;88.09
14117;BME280;7137;51.436;6.544;2022-08-19T02:49:37;100893.28;;;19.24;87.93
14117;BME280;7137;51.436;6.544;2022-08-19T02:52:39;100898.69;;;19.22;89.11
14117;BME280;7137;51.436;6.544;2022-08-19T02:55:46;100897.00;;;19.21;89.80
14117;BME280;7137;51.436;6.544;2022-08-19T02:58:48;100903.34;;;19.19;89.44
14117;BME280;7137;51.436;6.544;2022-08-19T03:01:49;100899.00;;;19.18;88.27
14117;BME280;7137;51.436;6.544;2022-08-19T03:04:51;100907.69;;;19.20;88.33
14117;BME280;7137;51.436;6.544;2022-08-19T03:07:52;100910.53;;;19.17;90.32
14117;BME280;7137;51.436;6.544;2022-08-19T03:10:56;100911.38;;;19.17;88.95
14117;BME280;7137;51.436;6.544;2022-08-19T03:13:58;100918.38;;;19.18;89.17
14117;BME280;7137;51.436;6.544;2022-08-19T03:17:01;100913.72;;;19.22;88.34
14117;BME280;7137;51.436;6.544;2022-08-19T03:20:04;100918.56;;;19.30;88.80
14117;BME280;7137;51.436;6.544;2022-08-19T03:23:06;100919.94;;;19.35;89.70
14117;BME280;7137;51.436;6.544;2022-08-19T03:26:09;100922.75;;;19.46;87.65
14117;BME280;7137;51.436;6.544;2022-08-19T03:29:11;100911.16;;;19.62;88.10
14117;BME280;7137;51.436;6.544;2022-08-19T03:32:12;100907.50;;;19.77;86.96
14117;BME280;7137;51.436;6.544;2022-08-19T03:35:14;100906.97;;;19.72;87.45
14117;BME280;7137;51.436;6.544;2022-08-19T03:38:16;100897.59;;;19.66;88.86
14117;BME280;7137;51.436;6.544;2022-08-19T03:41:21;100894.72;;;19.56;88.16
14117;BME280;7137;51.436;6.544;2022-08-19T03:44:22;100896.16;;;19.48;88.86
14117;BME280;7137;51.436;6.544;2022-08-19T03:47:24;100902.34;;;19.34;88.32
14117;BME280;7137;51.436;6.544;2022-08-19T03:50:25;100906.63;;;19.22;89.28
14117;BME280;7137;51.436;6.544;2022-08-19T03:53:27;100901.13;;;19.25;87.81
14117;BME280;7137;51.436;6.544;2022-08-19T03:56:31;100906.19;;;19.16;89.17
14117;BME280;7137;51.436;6.544;2022-08-19T03:59:36;100904.75;;;19.10;89.77
14117;BME280;7137;51.436;6.544;2022-08-19T04:02:37;100904.53;;;19.01;91.48
14117;BME280;7137;51.436;6.544;2022-08-19T04:05:39;100896.09;;;18.94;91.34
14117;BME280;7137;51.436;6.544;2022-08-19T04:08:42;100899.59;;;18.94;92.24
14117;BME280;7137;51.436;6.544;2022-08-19T04:11:46;100907.16;;;19.01;90.72
14117;BME280;7137;51.436;6.544;2022-08-19T04:14:49;100906.59;;;18.95;92.10
14117;BME280;7137;51.436;6.544;2022-08-19T04:17:51;100899.91;;;18.90;91.15
14117;BME280;7137;51.436;6.544;2022-08-19T04:20:53;100903.66;;;18.86;92.51
14117;BME280;7137;51.436;6.544;2022-08-19T04:23:55;100901.41;;;18.80;91.47
14117;BME280;7137;51.436;6.544;2022-08-19T04:27:00;100906.91;;;18.77;92.45
14117;BME280;7137;51.436;6.544;2022-08-19T04:30:03;100911.25;;;18.78;91.20
14117;BME280;7137;51.436;6.544;2022-08-19T04:33:05;100912.41;;;18.74;93.17
14117;BME280;7137;51.436;6.544;2022-08-19T04:36:07;100905.47;;;18.71;93.40
14117;BME280;7137;51.436;6.544;2022-08-19T04:39:12;100894.38;;;19.07;91.05
14117;BME280;7137;51.436;6.544;2022-08-19T04:42:17;100903.50;;;19.30;90.04
14117;BME280;7137;51.436;6.544;2022-08-19T04:45:36;100901.63;;;19.18;92.10
14117;BME280;7137;51.436;6.544;2022-08-19T04:48:38;100911.84;;;19.10;92.94
14117;BME280;7137;51.436;6.544;2022-08-19T04:51:41;100914.78;;;19.19;92.05
14117;BME280;7137;51.436;6.544;2022-08-19T04:54:43;100908.66;;;19.05;94.26
14117;BME280;7137;51.436;6.544;2022-08-19T04:57:46;100915.13;;;19.01;93.96
14117;BME280;7137;51.436;6.544;2022-08-19T05:00:47;100921.06;;;19.04;94.24
14117;BME280;7137;51.436;6.544;2022-08-19T05:03:49;100926.69;;;19.12;94.99
14117;BME280;7137;51.436;6.544;2022-08-19T05:06:52;100930.47;;;19.22;93.39
14117;BME280;7137;51.436;6.544;2022-08-19T05:09:54;100927.88;;;19.35;92.96
14117;BME280;7137;51.436;6.544;2022-08-19T05:12:57;100946.03;;;19.41;93.88
14117;BME280;7137;51.436;6.544;2022-08-19T05:16:00;100945.22;;;19.53;93.13
14117;BME280;7137;51.436;6.544;2022-08-19T05:19:01;100946.16;;;19.67;91.63
14117;BME280;7137;51.436;6.544;2022-08-19T05:22:20;100954.59;;;19.73;90.53
14117;BME280;7137;51.436;6.544;2022-08-19T05:25:39;100963.00;;;19.93;89.08
14117;BME280;7137;51.436;6.544;2022-08-19T05:28:42;100965.47;;;20.08;87.40
14117;BME280;7137;51.436;6.544;2022-08-19T05:31:44;100975.59;;;20.16;86.72
14117;BME280;7137;51.436;6.544;2022-08-19T05:34:47;100964.75;;;20.19;88.37
14117;BME280;7137;51.436;6.544;2022-08-19T05:37:49;100959.47;;;20.32;87.95
14117;BME280;7137;51.436;6.544;2022-08-19T05:40:50;100952.34;;;20.20;88.26
14117;BME280;7137;51.436;6.544;2022-08-19T05:43:57;100956.88;;;20.44;86.17
14117;BME280;7137;51.436;6.544;2022-08-19T05:47:00;100959.44;;;20.59;87.32
14117;BME280;7137;51.436;6.544;2022-08-19T05:50:02;100954.97;;;20.72;87.12
14117;BME280;7137;51.436;6.544;2022-08-19T05:53:04;100955.00;;;20.96;84.72
14117;BME280;7137;51.436;6.544;2022-08-19T05:56:07;100955.94;;;21.08;83.40
14117;BME280;7137;51.436;6.544;2022-08-19T05:59:10;100962.94;;;21.21;82.97
14117;BME280;7137;51.436;6.544;2022-08-19T06:02:12;100967.63;;;21.30;82.68
14117;BME280;7137;51.436;6.544;2022-08-19T06:05:15;100968.66;;;21.41;82.09
14117;BME280;7137;51.436;6.544;2022-08-19T06:08:16;100964.38;;;20.89;83.51
14117;BME280;7137;51.436;6.544;2022-08-19T06:11:21;100964.03;;;21.06;84.51
14117;BME280;7137;51.436;6.544;2022-08-19T06:14:26;100966.16;;;21.50;82.55
14117;BME280;7137;51.436;6.544;2022-08-19T06:17:29;100965.91;;;22.14;78.99
14117;BME280;7137;51.436;6.544;2022-08-19T06:20:31;100967.13;;;22.90;76.35
14117;BME280;7137;51.436;6.544;2022-08-19T06:23:33;100977.44;;;24.03;71.01
14117;BME280;7137;51.436;6.544;2022-08-19T06:26:38;100979.47;;;25.44;66.01
14117;BME280;7137;51.436;6.544;2022-08-19T06:29:41;100978.69;;;26.01;63.10
14117;BME280;7137;51.436;6.544;2022-08-19T06:32:42;100982.34;;;25.12;65.26
14117;BME280;7137;51.436;6.544;2022-08-19T06:35:44;100984.22;;;25.81;63.70
14117;BME280;7137;51.436;6.544;2022-08-19T06:38:45;100986.91;;;25.90;61.30
14117;BME280;7137;51.436;6.544;2022-08-19T06:41:49;100990.97;;;28.25;55.42
14117;BME280;7137;51.436;6.544;2022-08-19T06:44:56;100987.75;;;30.57;48.67
14117;BME280;7137;51.436;6.544;2022-08-19T06:47:58;100997.16;;;32.70;44.10
14117;BME280;7137;51.436;6.544;2022-08-19T06:50:59;101004.22;;;32.57;42.95
14117;BME280;7137;51.436;6.544;2022-08-19T06:54:03;100998.13;;;33.58;40.81
14117;BME280;7137;51.436;6.544;2022-08-19T06:57:05;101001.44;;;34.17;39.58
14117;BME280;7137;51.436;6.544;2022-08-19T07:00:11;101000.38;;;35.44;36.59
14117;BME280;7137;51.436;6.544;2022-08-19T07:03:13;101005.94;;;35.83;35.73
14117;BME280;7137;51.436;6.544;2022-08-19T07:06:17;100998.75;;;35.49;36.05
14117;BME280;7137;51.436;6.544;2022-08-19T07:09:19;101007.03;;;36.28;35.01
14117;BME280;7137;51.436;6.544;2022-08-19T07:12:21;101003.34;;;37.14;33.36
14117;BME280;7137;51.436;6.544;2022-08-19T07:15:28;100998.75;;;37.59;32.21
14117;BME280;7137;51.436;6.544;2022-08-19T07:18:29;101005.34;;;35.94;35.06
14117;BME280;7137;51.436;6.544;2022-08-19T07:21:31;100993.13;;;35.70;35.94
14117;BME280;7137;51.436;6.544;2022-08-19T07:24:33;100998.69;;;37.28;33.37
14117;BME280;7137;51.436;6.544;2022-08-19T07:27:35;101005.63;;;35.04;38.15
14117;BME280;7137;51.436;6.544;2022-08-19T07:30:38;100997.66;;;35.37;36.80
14117;BME280;7137;51.436;6.544;2022-08-19T07:33:41;101006.63;;;36.12;35.04
14117;BME280;7137;51.436;6.544;2022-08-19T07:36:43;100999.34;;;34.69;38.09
14117;BME280;7137;51.436;6.544;2022-08-19T07:39:45;101006.28;;;34.43;38.08
14117;BME280;7137;51.436;6.544;2022-08-19T07:42:46;101019.16;;;33.56;41.13
14117;BME280;7137;51.436;6.544;2022-08-19T07:45:49;101024.03;;;35.43;37.77
14117;BME280;7137;51.436;6.544;2022-08-19T07:48:51;101027.16;;;36.41;34.77
14117;BME280;7137;51.436;6.544;2022-08-19T07:51:54;101031.34;;;36.63;34.22
14117;BME280;7137;51.436;6.544;2022-08-19T07:54:57;101038.44;;;36.11;35.23
14117;BME280;7137;51.436;6.544;2022-08-19T07:58:00;101030.16;;;35.17;36.22
14117;BME280;7137;51.436;6.544;2022-08-19T08:01:04;101027.09;;;31.85;43.28
14117;BME280;7137;51.436;6.544;2022-08-19T08:04:07;101032.91;;;31.43;44.67
14117;BME280;7137;51.436;6.544;2022-08-19T08:07:22;101032.78;;;30.73;46.81
14117;BME280;7137;51.436;6.544;2022-08-19T08:10:41;101039.91;;;33.19;41.35
14117;BME280;7137;51.436;6.544;2022-08-19T08:13:43;101039.19;;;35.31;36.44
14117;BME280;7137;51.436;6.544;2022-08-19T08:16:47;101041.78;;;35.93;35.39
14117;BME280;7137;51.436;6.544;2022-08-19T08:19:50;101038.19;;;34.41;36.86
14117;BME280;7137;51.436;6.544;2022-08-19T08:22:51;101035.28;;;34.00;37.50
14117;BME280;7137;51.436;6.544;2022-08-19T08:26:10;101033.19;;;33.15;39.23
14117;BME280;7137;51.436;6.544;2022-08-19T08:29:13;101040.44;;;35.28;36.02
14117;BME280;7137;51.436;6.544;2022-08-19T08:32:17;101047.22;;;35.93;34.62
14117;BME280;7137;51.436;6.544;2022-08-19T08:35:21;101055.50;;;37.37;32.26
14117;BME280;7137;51.436;6.544;2022-08-19T08:38:23;101056.28;;;34.56;35.71
14117;BME280;7137;51.436;6.544;2022-08-19T08:41:30;101051.97;;;35.78;35.30
14117;BME280;7137;51.436;6.544;2022-08-19T08:44:42;101062.28;;;37.02;32.46
14117;BME280;7137;51.436;6.544;2022-08-19T08:47:50;101058.63;;;38.17;31.33
14117;BME280;7137;51.436;6.544;2022-08-19T08:50:54;101060.91;;;36.33;32.65
14117;BME280;7137;51.436;6.544;2022-08-19T08:53:57;101065.44;;;37.05;31.65
14117;BME280;7137;51.436;6.544;2022-08-19T08:57:00;101063.09;;;37.80;30.54
14117;BME280;7137;51.436;6.544;2022-08-19T09:00:06;101058.84;;;38.22;29.48
14117;BME280;7137;51.436;6.544;2022-08-19T09:03:16;101058.78;;;36.75;32.04
14117;BME280;7137;51.436;6.544;2022-08-19T09:06:35;101050.09;;;37.18;31.58
14117;BME280;7137;51.436;6.544;2022-08-19T09:09:40;101049.06;;;37.12;31.65
14117;BME280;7137;51.436;6.544;2022-08-19T09:12:53;101048.66;;;37.08;30.24
14117;BME280;7137;51.436;6.544;2022-08-19T09:15:58;101047.47;;;34.81;33.28
14117;BME280;7137;51.436;6.544;2022-08-19T09:19:06;101046.28;;;35.66;33.14
14117;BME280;7137;51.436;6.544;2022-08-19T09:22:08;101043.56;;;34.63;34.03
14117;BME280;7137;51.436;6.544;2022-08-19T09:25:13;101044.97;;;32.93;37.15
14117;BME280;7137;51.436;6.544;2022-08-19T09:28:14;101039.88;;;31.29;40.79
14117;BME280;7137;51.436;6.544;2022-08-19T09:31:18;101044.22;;;33.28;37.55
14117;BME280;7137;51.436;6.544;2022-08-19T09:34:22;101044.19;;;33.58;36.32
14117;BME280;7137;51.436;6.544;2022-08-19T09:37:23;101046.44;;;35.17;33.97
14117;BME280;7137;51.436;6.544;2022-08-19T09:40:25;101048.72;;;35.07;33.26
14117;BME280;7137;51.436;6.544;2022-08-19T09:43:28;101054.63;;;35.65;32.37
14117;BME280;7137;51.436;6.544;2022-08-19T09:46:31;101052.28;;;35.14;33.01
14117;BME280;7137;51.436;6.544;2022-08-19T09:49:34;101047.53;;;35.64;31.85
14117;BME280;7137;51.436;6.544;2022-08-19T09:52:35;101046.91;;;34.15;34.58
14117;BME280;7137;51.436;6.544;2022-08-19T09:55:41;101040.72;;;34.43;34.20
14117;BME280;7137;51.436;6.544;2022-08-19T09:58:43;101048.47;;;34.24;34.08
14117;BME280;7137;51.436;6.544;2022-08-19T10:01:44;101049.06;;;34.69;32.96
14117;BME280;7137;51.436;6.544;2022-08-19T10:04:48;101050.31;;;32.63;36.57
14117;BME280;7137;51.436;6.544;2022-08-19T10:08:07;101036.25;;;29.92;42.30
14117;BME280;7137;51.436;6.544;2022-08-19T10:11:08;101037.75;;;31.48;39.79
14117;BME280;7137;51.436;6.544;2022-08-19T10:14:10;101045.59;;;32.80;36.89
14117;BME280;7137;51.436;6.544;2022-08-19T10:17:13;101035.06;;;32.10;38.16
14117;BME280;7137;51.436;6.544;2022-08-19T10:20:16;101034.94;;;31.72;39.31
14117;BME280;7137;51.436;6.544;2022-08-19T10:23:18;101040.69;;;30.75;41.58
14117;BME280;7137;51.436;6.544;2022-08-19T10:26:23;101030.91;;;30.73;42.05
14117;BME280;7137;51.436;6.544;2022-08-19T10:29:25;101025.59;;;31.83;39.08
14117;BME280;7137;51.436;6.544;2022-08-19T10:32:28;101013.19;;;29.90;42.58
14117;BME280;7137;51.436;6.544;2022-08-19T10:35:32;101008.88;;;29.46;45.42
14117;BME280;7137;51.436;6.544;2022-08-19T10:38:34;101009.94;;;30.92;41.73
14117;BME280;7137;51.436;6.544;2022-08-19T10:41:37;101006.81;;;30.23;43.52
14117;BME280;7137;51.436;6.544;2022-08-19T10:44:39;101000.56;;;29.98;43.36
14117;BME280;7137;51.436;6.544;2022-08-19T10:47:41;100998.03;;;30.46;43.73
14117;BME280;7137;51.436;6.544;2022-08-19T10:50:44;100997.88;;;30.39;44.17
14117;BME280;7137;51.436;6.544;2022-08-19T10:54:03;101001.72;;;29.96;44.20
14117;BME280;7137;51.436;6.544;2022-08-19T10:57:05;101008.47;;;29.92;42.92
14117;BME280;7137;51.436;6.544;2022-08-19T11:00:06;101015.53;;;29.93;43.78
14117;BME280;7137;51.436;6.544;2022-08-19T11:03:08;101006.91;;;29.22;44.34
14117;BME280;7137;51.436;6.544;2022-08-19T11:06:11;101009.66;;;29.31;44.07
14117;BME280;7137;51.436;6.544;2022-08-19T11:09:13;101006.16;;;28.78;45.74
14117;BME280;7137;51.436;6.544;2022-08-19T11:12:16;101001.81;;;28.85;45.91
14117;BME280;7137;51.436;6.544;2022-08-19T11:15:20;101003.66;;;28.85;46.34
14117;BME280;7137;51.436;6.544;2022-08-19T11:18:22;100990.38;;;29.09;46.13
14117;BME280;7137;51.436;6.544;2022-08-19T11:21:28;100989.59;;;29.83;43.76
14117;BME280;7137;51.436;6.544;2022-08-19T11:24:31;100995.47;;;29.20;44.61
14117;BME280;7137;51.436;6.544;2022-08-19T11:27:37;100998.03;;;29.38;44.15
14117;BME280;7137;51.436;6.544;2022-08-19T11:30:39;101004.06;;;29.74;41.87
14117;BME280;7137;51.436;6.544;2022-08-19T11:33:41;100998.91;;;30.30;42.10
14117;BME280;7137;51.436;6.544;2022-08-19T11:36:45;100996.50;;;31.31;39.77
14117;BME280;7137;51.436;6.544;2022-08-19T11:39:47;100996.19;;;30.46;39.85
14117;BME280;7137;51.436;6.544;2022-08-19T11:42:49;100998.53;;;30.65;40.14
14117;BME280;7137;51.436;6.544;2022-08-19T11:45:57;100998.94;;;31.01;39.04
14117;BME280;7137;51.436;6.544;2022-08-19T11:48:59;100995.78;;;31.68;38.43
14117;BME280;7137;51.436;6.544;2022-08-19T11:52:03;100993.81;;;30.76;38.95
14117;BME280;7137;51.436;6.544;2022-08-19T11:55:06;100986.41;;;30.45;38.92
14117;BME280;7137;51.436;6.544;2022-08-19T11:58:08;100991.63;;;29.31;41.26
14117;BME280;7137;51.436;6.544;2022-08-19T12:01:11;100982.19;;;29.94;39.60
14117;BME280;7137;51.436;6.544;2022-08-19T12:04:13;100985.28;;;30.15;39.84
14117;BME280;7137;51.436;6.544;2022-08-19T12:07:16;100983.91;;;30.35;38.41
14117;BME280;7137;51.436;6.544;2022-08-19T12:10:18;100986.31;;;29.05;40.76
14117;BME280;7137;51.436;6.544;2022-08-19T12:13:19;100988.28;;;28.95;41.11
14117;BME280;7137;51.436;6.544;2022-08-19T12:16:24;100977.47;;;29.21;41.83
14117;BME280;7137;51.436;6.544;2022-08-19T12:19:27;100986.50;;;29.54;41.39
14117;BME280;7137;51.436;6.544;2022-08-19T12:22:30;100981.84;;;29.97;40.89
14117;BME280;7137;51.436;6.544;2022-08-19T12:25:32;100976.81;;;30.02;40.71
14117;BME280;7137;51.436;6.544;2022-08-19T12:28:34;100975.13;;;30.33;38.88
14117;BME280;7137;51.436;6.544;2022-08-19T12:31:36;100964.00;;;30.69;39.01
14117;BME280;7137;51.436;6.544;2022-08-19T12:34:38;100961.19;;;30.13;38.48
14117;BME280;7137;51.436;6.544;2022-08-19T12:37:41;100960.16;;;30.14;38.12
14117;BME280;7137;51.436;6.544;2022-08-19T12:40:45;100962.66;;;30.40;38.08
14117;BME280;7137;51.436;6.544;2022-08-19T12:43:48;100959.44;;;29.72;39.76
14117;BME280;7137;51.436;6.544;2022-08-19T12:46:50;100962.47;;;29.77;39.68
14117;BME280;7137;51.436;6.544;2022-08-19T12:49:52;100959.97;;;30.40;39.05
14117;BME280;7137;51.436;6.544;2022-08-19T12:52:56;100951.84;;;29.59;39.81
14117;BME280;7137;51.436;6.544;2022-08-19T12:55:58;100965.50;;;29.66;40.47
14117;BME280;7137;51.436;6.544;2022-08-19T12:59:01;100960.59;;;29.11;41.80
14117;BME280;7137;51.436;6.544;2022-08-19T13:02:02;100951.22;;;29.15;41.30
14117;BME280;7137;51.436;6.544;2022-08-19T13:05:07;100948.41;;;29.41;40.49
14117;BME280;7137;51.436;6.544;2022-08-19T13:08:12;100954.31;;;29.44;40.36
14117;BME280;7137;51.436;6.544;2022-08-19T13:11:16;100951.09;;;29.41;39.99
14117;BME280;7137;51.436;6.544;2022-08-19T13:14:18;100949.38;;;29.23;41.34
14117;BME280;7137;51.436;6.544;2022-08-19T13:17:21;100942.75;;;29.68;40.00
14117;BME280;7137;51.436;6.544;2022-08-19T13:20:23;100950.41;;;29.39;40.48
14117;BME280;7137;51.436;6.544;2022-08-19T13:23:26;100954.78;;;29.32;40.00
14117;BME280;7137;51.436;6.544;2022-08-19T13:26:28;100947.47;;;29.50;40.94
14117;BME280;7137;51.436;6.544;2022-08-19T13:29:29;100949.19;;;29.25;41.56
14117;BME280;7137;51.436;6.544;2022-08-19T13:32:48;100952.16;;;29.48;41.60
14117;BME280;7137;51.436;6.544;2022-08-19T13:36:07;100945.56;;;28.92;43.48
14117;BME280;7137;51.436;6.544;2022-08-19T13:39:10;100940.47;;;29.23;43.43
14117;BME280;7137;51.436;6.544;2022-08-19T13:42:12;100931.56;;;29.31;42.82
14117;BME280;7137;51.436;6.544;2022-08-19T13:45:15;100932.50;;;29.13;44.16
14117;BME280;7137;51.436;6.544;2022-08-19T13:48:18;100938.66;;;28.63;44.22
14117;BME280;7137;51.436;6.544;2022-08-19T13:51:19;100929.44;;;28.40;45.21
14117;BME280;7137;51.436;6.544;2022-08-19T13:54:22;100931.97;;;28.42;45.27
14117;BME280;7137;51.436;6.544;2022-08-19T13:57:24;100927.59;;;27.97;44.93
14117;BME280;7137;51.436;6.544;2022-08-19T14:00:28;100931.53;;;27.85;44.61
14117;BME280;7137;51.436;6.544;2022-08-19T14:03:30;100929.16;;;28.25;45.18
14117;BME280;7137;51.436;6.544;2022-08-19T14:06:33;100932.16;;;28.22;43.78
14117;BME280;7137;51.436;6.544;2022-08-19T14:09:36;100930.81;;;28.18;44.18
14117;BME280;7137;51.436;6.544;2022-08-19T14:12:38;100931.72;;;28.27;42.67
14117;BME280;7137;51.436;6.544;2022-08-19T14:15:41;100935.22;;;28.45;42.07
14117;BME280;7137;51.436;6.544;2022-08-19T14:18:43;100927.78;;;27.77;42.90
14117;BME280;7137;51.436;6.544;2022-08-19T14:21:45;100927.56;;;28.15;41.84
14117;BME280;7137;51.436;6.544;2022-08-19T14:24:52;100925.22;;;27.94;40.06
14117;BME280;7137;51.436;6.544;2022-08-19T14:27:54;100932.22;;;27.87;41.60
14117;BME280;7137;51.436;6.544;2022-08-19T14:30:56;100934.22;;;27.67;41.31
14117;BME280;7137;51.436;6.544;2022-08-19T14:33:57;100926.31;;;27.83;41.82
14117;BME280;7137;51.436;6.544;2022-08-19T14:36:59;100927.44;;;27.63;42.46
14117;BME280;7137;51.436;6.544;2022-08-19T14:40:03;100921.94;;;27.46;42.59
14117;BME280;7137;51.436;6.544;2022-08-19T14:43:05;100924.41;;;27.75;43.42
14117;BME280;7137;51.436;6.544;2022-08-19T14:46:06;100923.75;;;28.17;41.21
14117;BME280;7137;51.436;6.544;2022-08-19T14:49:08;100924.34;;;28.29;40.63
14117;BME280;7137;51.436;6.544;2022-08-19T14:52:09;100926.19;;;28.28;41.09
14117;BME280;7137;51.436;6.544;2022-08-19T14:55:17;100928.66;;;28.48;40.86
14117;BME280;7137;51.436;6.544;2022-08-19T14:58:19;100920.88;;;28.71;39.73
14117;BME280;7137;51.436;6.544;2022-08-19T15:01:21;100913.38;;;28.48;40.62
14117;BME280;7137;51.436;6.544;2022-08-19T15:04:23;100914.84;;;28.43;39.80
14117;BME280;7137;51.436;6.544;2022-08-19T15:07:24;100911.91;;;28.10;41.83
14117;BME280;7137;51.436;6.544;2022-08-19T15:10:27;100917.91;;;28.48;41.73
14117;BME280;7137;51.436;6.544;2022-08-19T15:13:29;100922.66;;;28.54;43.10
14117;BME280;7137;51.436;6.544;2022-08-19T15:16:32;100933.22;;;28.47;41.19
14117;BME280;7137;51.436;6.544;2022-08-19T15:19:34;100938.16;;;28.60;41.25
14117;BME280;7137;51.436;6.544;2022-08-19T15:22:36;100942.53;;;28.35;42.23
14117;BME280;7137;51.436;6.544;2022-08-19T15:25:39;100951.25;;;27.93;43.74
14117;BME280;7137;51.436;6.544;2022-08-19T15:28:42;100946.97;;;27.65;45.06
14117;BME280;7137;51.436;6.544;2022-08-19T15:31:44;100949.00;;;27.53;44.81
14117;BME280;7137;51.436;6.544;2022-08-19T15:34:46;100951.88;;;27.69;44.81
14117;BME280;7137;51.436;6.544;2022-08-19T15:37:49;100963.16;;;27.91;45.03
14117;BME280;7137;51.436;6.544;2022-08-19T15:40:52;100967.28;;;28.03;45.04
14117;BME280;7137;51.436;6.544;2022-08-19T15:44:17;100973.50;;;28.03;45.18
14117;BME280;7137;51.436;6.544;2022-08-19T15:47:21;100966.75;;;28.17;45.40
14117;BME280;7137;51.436;6.544;2022-08-19T15:50:23;100969.09;;;28.20;44.85
14117;BME280;7137;51.436;6.544;2022-08-19T15:53:24;100983.31;;;28.56;44.06
14117;BME280;7137;51.436;6.544;2022-08-19T15:56:27;100983.13;;;28.50;44.50
14117;BME280;7137;51.436;6.544;2022-08-19T15:59:52;100978.59;;;27.89;46.56
14117;BME280;7137;51.436;6.544;2022-08-19T16:03:13;100973.34;;;28.05;46.70
14117;BME280;7137;51.436;6.544;2022-08-19T16:06:33;100971.50;;;28.05;47.29
14117;BME280;7137;51.436;6.544;2022-08-19T16:09:34;100985.09;;;28.04;47.22
14117;BME280;7137;51.436;6.544;2022-08-19T16:12:37;100979.13;;;27.74;47.73
14117;BME280;7137;51.436;6.544;2022-08-19T16:15:41;100970.97;;;27.66;48.67